sensor_id;sensor_type;location;lat;lon;timestamp;P1;durP1;ratioP1;P2;durP2;ratioP2
78716;SDS011;68045;50.042;14.432;2023-08-17T00:03:54;17.05;;;12.13;;
78716;SDS011;68045;50.042;14.432;2023-08-17T00:07:55;15.35;;;12.35;;
78716;SDS011;68045;50.042;14.432;2023-08-17T00:11:55;19.13;;;12.10;;
78716;SDS011;68045;50.042;14.432;2023-08-17T00:15:56;17.08;;;11.80;;
78716;SDS011;68045;50.042;14.432;2023-08-17T00:19:57;17.10;;;11.75;;
78716;SDS011;68045;50.042;14.432;2023-08-17T00:23:58;15.70;;;11.88;;
78716;SDS011;68045;50.042;14.432;2023-08-17T00:27:59;17.52;;;13.52;;
78716;SDS011;68045;50.042;14.432;2023-08-17T00:32:00;20.35;;;13.60;;
78716;SDS011;68045;50.042;14.432;2023-08-17T00:36:01;19.63;;;14.40;;
78716;SDS011;68045;50.042;14.432;2023-08-17T00:40:03;17.55;;;12.85;;
78716;SDS011;68045;50.042;14.432;2023-08-17T00:44:04;19.52;;;12.70;;
78716;SDS011;68045;50.042;14.432;2023-08-17T00:48:05;16.92;;;12.13;;
78716;SDS011;68045;50.042;14.432;2023-08-17T00:52:08;18.13;;;13.55;;
78716;SDS011;68045;50.042;14.432;2023-08-17T00:56:09;19.15;;;13.02;;
78716;SDS011;68045;50.042;14.432;2023-08-17T01:00:11;18.60;;;12.77;;
78716;SDS011;68045;50.042;14.432;2023-08-17T01:04:13;20.17;;;13.20;;
78716;SDS011;68045;50.042;14.432;2023-08-17T01:08:14;15.52;;;12.15;;
78716;SDS011;68045;50.042;14.432;2023-08-17T01:12:32;15.80;;;10.88;;
78716;SDS011;68045;50.042;14.432;2023-08-17T01:16:38;16.73;;;11.82;;
78716;SDS011;68045;50.042;14.432;2023-08-17T01:20:43;16.42;;;11.85;;
78716;SDS011;68045;50.042;14.432;2023-08-17T01:24:45;15.30;;;12.18;;
78716;SDS011;68045;50.042;14.432;2023-08-17T01:28:46;18.10;;;12.32;;
78716;SDS011;68045;50.042;14.432;2023-08-17T01:32:54;15.02;;;11.48;;
78716;SDS011;68045;50.042;14.432;2023-08-17T01:37:00;13.90;;;11.00;;
78716;SDS011;68045;50.042;14.432;2023-08-17T01:45:13;18.77;;;11.77;;
78716;SDS011;68045;50.042;14.432;2023-08-17T01:49:14;17.17;;;11.85;;
78716;SDS011;68045;50.042;14.432;2023-08-17T01:53:15;18.52;;;12.00;;
78716;SDS011;68045;50.042;14.432;2023-08-17T01:57:16;16.05;;;11.18;;
78716;SDS011;68045;50.042;14.432;2023-08-17T02:01:17;19.90;;;12.32;;
78716;SDS011;68045;50.042;14.432;2023-08-17T02:05:18;18.70;;;13.20;;
78716;SDS011;68045;50.042;14.432;2023-08-17T02:09:20;16.05;;;11.45;;
78716;SDS011;68045;50.042;14.432;2023-08-17T02:13:21;18.00;;;12.82;;
78716;SDS011;68045;50.042;14.432;2023-08-17T02:17:22;16.25;;;12.25;;
78716;SDS011;68045;50.042;14.432;2023-08-17T02:21:23;18.30;;;13.60;;
78716;SDS011;68045;50.042;14.432;2023-08-17T02:25:24;17.52;;;12.85;;
78716;SDS011;68045;50.042;14.432;2023-08-17T02:29:26;18.75;;;12.70;;
78716;SDS011;68045;50.042;14.432;2023-08-17T02:33:27;17.05;;;12.90;;
78716;SDS011;68045;50.042;14.432;2023-08-17T02:37:28;16.13;;;12.52;;
78716;SDS011;68045;50.042;14.432;2023-08-17T02:41:29;15.43;;;11.23;;
78716;SDS011;68045;50.042;14.432;2023-08-17T02:45:35;17.02;;;11.90;;
78716;SDS011;68045;50.042;14.432;2023-08-17T02:49:36;17.40;;;11.38;;
78716;SDS011;68045;50.042;14.432;2023-08-17T02:53:37;22.00;;;13.02;;
78716;SDS011;68045;50.042;14.432;2023-08-17T02:57:38;13.45;;;10.55;;
78716;SDS011;68045;50.042;14.432;2023-08-17T03:01:39;15.38;;;11.55;;
78716;SDS011;68045;50.042;14.432;2023-08-17T03:05:40;15.18;;;11.20;;
78716;SDS011;68045;50.042;14.432;2023-08-17T03:09:41;17.73;;;11.13;;
78716;SDS011;68045;50.042;14.432;2023-08-17T03:13:42;18.52;;;13.13;;
78716;SDS011;68045;50.042;14.432;2023-08-17T03:17:42;15.07;;;12.25;;
78716;SDS011;68045;50.042;14.432;2023-08-17T03:21:44;17.50;;;12.02;;
78716;SDS011;68045;50.042;14.432;2023-08-17T03:25:45;18.50;;;11.70;;
78716;SDS011;68045;50.042;14.432;2023-08-17T03:29:46;15.85;;;12.90;;
78716;SDS011;68045;50.042;14.432;2023-08-17T03:33:47;16.52;;;11.35;;
78716;SDS011;68045;50.042;14.432;2023-08-17T03:37:49;17.25;;;13.45;;
78716;SDS011;68045;50.042;14.432;2023-08-17T03:41:49;16.30;;;12.73;;
78716;SDS011;68045;50.042;14.432;2023-08-17T03:45:51;16.42;;;11.93;;
78716;SDS011;68045;50.042;14.432;2023-08-17T03:49:52;18.95;;;13.10;;
78716;SDS011;68045;50.042;14.432;2023-08-17T03:53:52;20.45;;;12.23;;
78716;SDS011;68045;50.042;14.432;2023-08-17T03:57:54;18.80;;;12.48;;
78716;SDS011;68045;50.042;14.432;2023-08-17T04:01:55;16.95;;;11.27;;
78716;SDS011;68045;50.042;14.432;2023-08-17T04:05:56;15.82;;;11.75;;
78716;SDS011;68045;50.042;14.432;2023-08-17T04:09:57;19.02;;;13.23;;
78716;SDS011;68045;50.042;14.432;2023-08-17T04:13:58;18.20;;;12.73;;
78716;SDS011;68045;50.042;14.432;2023-08-17T04:17:59;19.08;;;13.70;;
78716;SDS011;68045;50.042;14.432;2023-08-17T04:22:00;16.23;;;11.45;;
78716;SDS011;68045;50.042;14.432;2023-08-17T04:26:01;19.08;;;12.50;;
78716;SDS011;68045;50.042;14.432;2023-08-17T04:30:03;16.73;;;12.40;;
78716;SDS011;68045;50.042;14.432;2023-08-17T04:34:12;19.25;;;14.68;;
78716;SDS011;68045;50.042;14.432;2023-08-17T04:38:13;20.80;;;13.95;;
78716;SDS011;68045;50.042;14.432;2023-08-17T04:42:14;20.05;;;13.20;;
78716;SDS011;68045;50.042;14.432;2023-08-17T04:46:15;19.63;;;15.18;;
78716;SDS011;68045;50.042;14.432;2023-08-17T04:50:16;21.52;;;14.75;;
78716;SDS011;68045;50.042;14.432;2023-08-17T04:54:18;18.67;;;14.65;;
78716;SDS011;68045;50.042;14.432;2023-08-17T04:58:19;59.17;;;17.20;;
78716;SDS011;68045;50.042;14.432;2023-08-17T05:02:20;37.03;;;17.08;;
78716;SDS011;68045;50.042;14.432;2023-08-17T05:06:22;32.08;;;17.45;;
78716;SDS011;68045;50.042;14.432;2023-08-17T05:10:24;54.53;;;17.60;;
78716;SDS011;68045;50.042;14.432;2023-08-17T05:14:25;25.65;;;15.63;;
78716;SDS011;68045;50.042;14.432;2023-08-17T05:18:26;20.60;;;14.57;;
78716;SDS011;68045;50.042;14.432;2023-08-17T05:22:27;25.23;;;15.65;;
78716;SDS011;68045;50.042;14.432;2023-08-17T05:26:28;22.20;;;14.73;;
78716;SDS011;68045;50.042;14.432;2023-08-17T05:30:29;23.90;;;16.02;;
78716;SDS011;68045;50.042;14.432;2023-08-17T05:34:30;22.40;;;15.38;;
78716;SDS011;68045;50.042;14.432;2023-08-17T05:38:32;22.92;;;15.85;;
78716;SDS011;68045;50.042;14.432;2023-08-17T05:42:33;20.70;;;14.65;;
78716;SDS011;68045;50.042;14.432;2023-08-17T05:46:34;24.05;;;15.57;;
78716;SDS011;68045;50.042;14.432;2023-08-17T05:50:35;22.67;;;15.65;;
78716;SDS011;68045;50.042;14.432;2023-08-17T05:54:35;21.10;;;15.55;;
78716;SDS011;68045;50.042;14.432;2023-08-17T05:58:36;19.90;;;14.80;;
78716;SDS011;68045;50.042;14.432;2023-08-17T06:02:38;22.10;;;14.15;;
78716;SDS011;68045;50.042;14.432;2023-08-17T06:06:39;22.17;;;14.88;;
78716;SDS011;68045;50.042;14.432;2023-08-17T06:10:40;20.55;;;15.82;;
78716;SDS011;68045;50.042;14.432;2023-08-17T06:18:43;21.52;;;15.48;;
78716;SDS011;68045;50.042;14.432;2023-08-17T06:22:44;22.80;;;16.58;;
78716;SDS011;68045;50.042;14.432;2023-08-17T06:26:48;18.33;;;13.90;;
78716;SDS011;68045;50.042;14.432;2023-08-17T06:30:51;21.77;;;14.43;;
78716;SDS011;68045;50.042;14.432;2023-08-17T06:34:55;20.33;;;14.75;;
78716;SDS011;68045;50.042;14.432;2023-08-17T06:38:56;20.85;;;15.20;;
78716;SDS011;68045;50.042;14.432;2023-08-17T06:42:57;19.23;;;15.23;;
78716;SDS011;68045;50.042;14.432;2023-08-17T06:46:58;20.92;;;14.77;;
78716;SDS011;68045;50.042;14.432;2023-08-17T06:50:59;19.95;;;15.70;;
78716;SDS011;68045;50.042;14.432;2023-08-17T06:55:00;19.30;;;14.50;;
78716;SDS011;68045;50.042;14.432;2023-08-17T06:59:01;19.70;;;14.30;;
78716;SDS011;68045;50.042;14.432;2023-08-17T07:03:01;19.77;;;15.45;;
78716;SDS011;68045;50.042;14.432;2023-08-17T07:07:04;18.80;;;12.80;;
78716;SDS011;68045;50.042;14.432;2023-08-17T07:11:05;14.80;;;11.80;;
78716;SDS011;68045;50.042;14.432;2023-08-17T07:15:06;14.70;;;11.95;;
78716;SDS011;68045;50.042;14.432;2023-08-17T07:19:08;18.67;;;11.40;;
78716;SDS011;68045;50.042;14.432;2023-08-17T07:23:09;14.48;;;11.82;;
78716;SDS011;68045;50.042;14.432;2023-08-17T07:27:10;16.42;;;12.18;;
78716;SDS011;68045;50.042;14.432;2023-08-17T07:31:10;14.80;;;12.25;;
78716;SDS011;68045;50.042;14.432;2023-08-17T07:35:12;17.55;;;11.60;;
78716;SDS011;68045;50.042;14.432;2023-08-17T07:39:13;16.98;;;11.73;;
78716;SDS011;68045;50.042;14.432;2023-08-17T07:43:14;14.55;;;11.82;;
78716;SDS011;68045;50.042;14.432;2023-08-17T07:47:14;18.20;;;12.27;;
78716;SDS011;68045;50.042;14.432;2023-08-17T07:51:15;14.73;;;10.88;;
78716;SDS011;68045;50.042;14.432;2023-08-17T07:55:16;14.00;;;11.88;;
78716;SDS011;68045;50.042;14.432;2023-08-17T07:59:17;21.25;;;10.88;;
78716;SDS011;68045;50.042;14.432;2023-08-17T08:03:18;15.80;;;12.60;;
78716;SDS011;68045;50.042;14.432;2023-08-17T08:07:19;13.70;;;10.88;;
78716;SDS011;68045;50.042;14.432;2023-08-17T08:11:21;16.60;;;11.68;;
78716;SDS011;68045;50.042;14.432;2023-08-17T08:15:22;15.25;;;10.90;;
78716;SDS011;68045;50.042;14.432;2023-08-17T08:19:23;13.85;;;11.30;;
78716;SDS011;68045;50.042;14.432;2023-08-17T08:23:24;16.88;;;11.85;;
78716;SDS011;68045;50.042;14.432;2023-08-17T08:27:25;12.73;;;11.35;;
78716;SDS011;68045;50.042;14.432;2023-08-17T08:31:26;13.23;;;11.00;;
78716;SDS011;68045;50.042;14.432;2023-08-17T08:35:27;15.00;;;9.90;;
78716;SDS011;68045;50.042;14.432;2023-08-17T08:39:28;14.73;;;11.02;;
78716;SDS011;68045;50.042;14.432;2023-08-17T08:43:29;13.57;;;10.90;;
78716;SDS011;68045;50.042;14.432;2023-08-17T08:47:30;14.13;;;9.85;;
78716;SDS011;68045;50.042;14.432;2023-08-17T08:51:34;13.02;;;10.93;;
78716;SDS011;68045;50.042;14.432;2023-08-17T08:55:45;14.57;;;10.82;;
78716;SDS011;68045;50.042;14.432;2023-08-17T08:59:49;14.73;;;10.25;;
78716;SDS011;68045;50.042;14.432;2023-08-17T09:03:50;15.43;;;10.73;;
78716;SDS011;68045;50.042;14.432;2023-08-17T09:07:53;14.70;;;11.75;;
78716;SDS011;68045;50.042;14.432;2023-08-17T09:11:55;10.63;;;9.52;;
78716;SDS011;68045;50.042;14.432;2023-08-17T09:15:57;13.18;;;9.90;;
78716;SDS011;68045;50.042;14.432;2023-08-17T09:20:00;13.75;;;9.30;;
78716;SDS011;68045;50.042;14.432;2023-08-17T09:24:00;14.23;;;9.75;;
78716;SDS011;68045;50.042;14.432;2023-08-17T09:28:06;12.60;;;11.40;;
78716;SDS011;68045;50.042;14.432;2023-08-17T09:32:11;13.70;;;10.95;;
78716;SDS011;68045;50.042;14.432;2023-08-17T09:36:14;17.08;;;11.27;;
78716;SDS011;68045;50.042;14.432;2023-08-17T09:40:15;14.52;;;11.23;;
78716;SDS011;68045;50.042;14.432;2023-08-17T09:48:17;12.13;;;10.15;;
78716;SDS011;68045;50.042;14.432;2023-08-17T09:52:18;12.02;;;10.93;;
78716;SDS011;68045;50.042;14.432;2023-08-17T09:56:23;11.30;;;10.25;;
78716;SDS011;68045;50.042;14.432;2023-08-17T10:00:24;12.07;;;10.98;;
78716;SDS011;68045;50.042;14.432;2023-08-17T10:04:25;10.70;;;9.60;;
78716;SDS011;68045;50.042;14.432;2023-08-17T10:08:30;11.48;;;10.38;;
78716;SDS011;68045;50.042;14.432;2023-08-17T10:12:36;10.35;;;8.57;;
78716;SDS011;68045;50.042;14.432;2023-08-17T10:16:44;11.55;;;10.15;;
78716;SDS011;68045;50.042;14.432;2023-08-17T10:20:49;10.82;;;9.82;;
78716;SDS011;68045;50.042;14.432;2023-08-17T10:25:11;10.55;;;9.32;;
78716;SDS011;68045;50.042;14.432;2023-08-17T10:29:14;11.20;;;9.90;;
78716;SDS011;68045;50.042;14.432;2023-08-17T10:33:15;13.30;;;11.35;;
78716;SDS011;68045;50.042;14.432;2023-08-17T10:37:17;10.75;;;9.75;;
78716;SDS011;68045;50.042;14.432;2023-08-17T10:41:19;12.43;;;10.43;;
78716;SDS011;68045;50.042;14.432;2023-08-17T10:49:39;11.68;;;9.52;;
78716;SDS011;68045;50.042;14.432;2023-08-17T10:53:43;10.70;;;9.38;;
78716;SDS011;68045;50.042;14.432;2023-08-17T10:57:44;9.30;;;8.50;;
78716;SDS011;68045;50.042;14.432;2023-08-17T11:01:45;8.95;;;8.05;;
78716;SDS011;68045;50.042;14.432;2023-08-17T11:05:52;10.73;;;8.93;;
78716;SDS011;68045;50.042;14.432;2023-08-17T11:09:56;10.65;;;9.02;;
78716;SDS011;68045;50.042;14.432;2023-08-17T11:13:58;10.90;;;9.90;;
78716;SDS011;68045;50.042;14.432;2023-08-17T11:17:59;10.43;;;7.90;;
78716;SDS011;68045;50.042;14.432;2023-08-17T11:22:00;12.35;;;9.55;;
78716;SDS011;68045;50.042;14.432;2023-08-17T11:26:01;10.85;;;8.77;;
78716;SDS011;68045;50.042;14.432;2023-08-17T11:30:02;9.75;;;8.43;;
78716;SDS011;68045;50.042;14.432;2023-08-17T11:34:04;10.15;;;9.13;;
78716;SDS011;68045;50.042;14.432;2023-08-17T11:38:05;9.93;;;8.98;;
78716;SDS011;68045;50.042;14.432;2023-08-17T11:42:06;10.48;;;9.23;;
78716;SDS011;68045;50.042;14.432;2023-08-17T11:46:07;9.98;;;9.02;;
78716;SDS011;68045;50.042;14.432;2023-08-17T11:54:12;9.38;;;8.35;;
78716;SDS011;68045;50.042;14.432;2023-08-17T12:02:14;14.65;;;9.80;;
78716;SDS011;68045;50.042;14.432;2023-08-17T12:06:15;11.30;;;10.23;;
78716;SDS011;68045;50.042;14.432;2023-08-17T12:10:17;11.05;;;10.00;;
78716;SDS011;68045;50.042;14.432;2023-08-17T12:14:19;11.63;;;10.20;;
78716;SDS011;68045;50.042;14.432;2023-08-17T12:22:25;12.98;;;9.45;;
78716;SDS011;68045;50.042;14.432;2023-08-17T12:26:26;10.77;;;9.27;;
78716;SDS011;68045;50.042;14.432;2023-08-17T12:30:28;11.82;;;10.10;;
78716;SDS011;68045;50.042;14.432;2023-08-17T12:34:36;11.73;;;10.10;;
78716;SDS011;68045;50.042;14.432;2023-08-17T12:38:37;10.40;;;8.88;;
78716;SDS011;68045;50.042;14.432;2023-08-17T12:42:41;11.50;;;8.52;;
78716;SDS011;68045;50.042;14.432;2023-08-17T12:46:42;10.18;;;8.07;;
78716;SDS011;68045;50.042;14.432;2023-08-17T12:50:43;10.77;;;8.45;;
78716;SDS011;68045;50.042;14.432;2023-08-17T12:54:44;11.02;;;8.80;;
78716;SDS011;68045;50.042;14.432;2023-08-17T12:58:45;9.70;;;8.10;;
78716;SDS011;68045;50.042;14.432;2023-08-17T13:02:46;8.90;;;6.95;;
78716;SDS011;68045;50.042;14.432;2023-08-17T13:06:49;8.30;;;6.55;;
78716;SDS011;68045;50.042;14.432;2023-08-17T13:10:51;11.07;;;7.35;;
78716;SDS011;68045;50.042;14.432;2023-08-17T13:14:52;10.80;;;6.93;;
78716;SDS011;68045;50.042;14.432;2023-08-17T13:18:53;11.00;;;6.35;;
78716;SDS011;68045;50.042;14.432;2023-08-17T13:22:54;10.25;;;6.15;;
78716;SDS011;68045;50.042;14.432;2023-08-17T13:26:55;7.95;;;5.85;;
78716;SDS011;68045;50.042;14.432;2023-08-17T13:30:57;8.23;;;5.78;;
78716;SDS011;68045;50.042;14.432;2023-08-17T13:35:01;8.25;;;6.85;;
78716;SDS011;68045;50.042;14.432;2023-08-17T13:39:02;7.35;;;6.22;;
78716;SDS011;68045;50.042;14.432;2023-08-17T13:43:03;9.82;;;7.32;;
78716;SDS011;68045;50.042;14.432;2023-08-17T13:47:05;14.07;;;7.07;;
78716;SDS011;68045;50.042;14.432;2023-08-17T13:51:06;11.52;;;7.25;;
78716;SDS011;68045;50.042;14.432;2023-08-17T13:55:07;8.43;;;7.10;;
78716;SDS011;68045;50.042;14.432;2023-08-17T13:59:08;9.60;;;7.32;;
78716;SDS011;68045;50.042;14.432;2023-08-17T14:03:09;10.57;;;6.45;;
78716;SDS011;68045;50.042;14.432;2023-08-17T14:07:10;13.93;;;7.13;;
78716;SDS011;68045;50.042;14.432;2023-08-17T14:11:11;10.57;;;7.63;;
78716;SDS011;68045;50.042;14.432;2023-08-17T14:15:12;8.85;;;7.15;;
78716;SDS011;68045;50.042;14.432;2023-08-17T14:19:12;12.60;;;7.15;;
78716;SDS011;68045;50.042;14.432;2023-08-17T14:23:13;9.60;;;7.82;;
78716;SDS011;68045;50.042;14.432;2023-08-17T14:27:14;10.88;;;6.80;;
78716;SDS011;68045;50.042;14.432;2023-08-17T14:31:15;8.75;;;7.28;;
78716;SDS011;68045;50.042;14.432;2023-08-17T14:35:18;8.40;;;7.05;;
78716;SDS011;68045;50.042;14.432;2023-08-17T14:39:18;11.13;;;6.80;;
78716;SDS011;68045;50.042;14.432;2023-08-17T14:43:20;9.10;;;7.47;;
78716;SDS011;68045;50.042;14.432;2023-08-17T14:47:21;12.73;;;7.07;;
78716;SDS011;68045;50.042;14.432;2023-08-17T14:51:22;10.48;;;6.50;;
78716;SDS011;68045;50.042;14.432;2023-08-17T14:55:23;7.50;;;6.63;;
78716;SDS011;68045;50.042;14.432;2023-08-17T14:59:25;10.02;;;6.47;;
78716;SDS011;68045;50.042;14.432;2023-08-17T15:03:26;7.63;;;6.00;;
78716;SDS011;68045;50.042;14.432;2023-08-17T15:07:26;9.50;;;5.40;;
78716;SDS011;68045;50.042;14.432;2023-08-17T15:11:28;9.15;;;5.63;;
78716;SDS011;68045;50.042;14.432;2023-08-17T15:15:29;7.53;;;5.80;;
78716;SDS011;68045;50.042;14.432;2023-08-17T15:19:30;6.72;;;5.78;;
78716;SDS011;68045;50.042;14.432;2023-08-17T15:23:31;7.75;;;6.32;;
78716;SDS011;68045;50.042;14.432;2023-08-17T15:27:31;9.15;;;6.15;;
78716;SDS011;68045;50.042;14.432;2023-08-17T15:31:33;7.88;;;6.50;;
78716;SDS011;68045;50.042;14.432;2023-08-17T15:35:33;10.05;;;7.72;;
78716;SDS011;68045;50.042;14.432;2023-08-17T15:39:34;10.45;;;7.63;;
78716;SDS011;68045;50.042;14.432;2023-08-17T15:43:35;11.40;;;7.78;;
78716;SDS011;68045;50.042;14.432;2023-08-17T15:47:36;9.98;;;8.80;;
78716;SDS011;68045;50.042;14.432;2023-08-17T15:51:37;9.73;;;8.73;;
78716;SDS011;68045;50.042;14.432;2023-08-17T15:55:38;11.63;;;10.43;;
78716;SDS011;68045;50.042;14.432;2023-08-17T15:59:39;11.43;;;9.68;;
78716;SDS011;68045;50.042;14.432;2023-08-17T16:03:40;12.13;;;10.00;;
78716;SDS011;68045;50.042;14.432;2023-08-17T16:07:41;10.57;;;9.35;;
78716;SDS011;68045;50.042;14.432;2023-08-17T16:11:42;11.30;;;9.65;;
78716;SDS011;68045;50.042;14.432;2023-08-17T16:15:43;10.57;;;9.45;;
78716;SDS011;68045;50.042;14.432;2023-08-17T16:19:44;10.82;;;9.73;;
78716;SDS011;68045;50.042;14.432;2023-08-17T16:23:44;11.88;;;9.32;;
78716;SDS011;68045;50.042;14.432;2023-08-17T16:27:45;11.45;;;8.65;;
78716;SDS011;68045;50.042;14.432;2023-08-17T16:31:53;15.02;;;9.73;;
78716;SDS011;68045;50.042;14.432;2023-08-17T16:35:59;8.80;;;7.90;;
78716;SDS011;68045;50.042;14.432;2023-08-17T16:40:00;8.35;;;6.82;;
78716;SDS011;68045;50.042;14.432;2023-08-17T16:44:03;13.00;;;6.63;;
78716;SDS011;68045;50.042;14.432;2023-08-17T16:48:04;9.77;;;7.28;;
78716;SDS011;68045;50.042;14.432;2023-08-17T16:56:06;7.93;;;6.80;;
78716;SDS011;68045;50.042;14.432;2023-08-17T17:00:07;6.82;;;5.18;;
78716;SDS011;68045;50.042;14.432;2023-08-17T17:04:09;8.98;;;5.63;;
78716;SDS011;68045;50.042;14.432;2023-08-17T17:08:09;6.63;;;5.28;;
78716;SDS011;68045;50.042;14.432;2023-08-17T17:12:10;7.88;;;5.57;;
78716;SDS011;68045;50.042;14.432;2023-08-17T17:16:11;7.10;;;5.80;;
78716;SDS011;68045;50.042;14.432;2023-08-17T17:20:12;7.90;;;5.72;;
78716;SDS011;68045;50.042;14.432;2023-08-17T17:24:13;7.60;;;5.72;;
78716;SDS011;68045;50.042;14.432;2023-08-17T17:28:24;9.85;;;5.43;;
78716;SDS011;68045;50.042;14.432;2023-08-17T17:32:25;9.35;;;6.05;;
78716;SDS011;68045;50.042;14.432;2023-08-17T17:36:26;8.50;;;6.22;;
78716;SDS011;68045;50.042;14.432;2023-08-17T17:40:26;9.52;;;6.50;;
78716;SDS011;68045;50.042;14.432;2023-08-17T17:44:27;7.32;;;6.57;;
78716;SDS011;68045;50.042;14.432;2023-08-17T17:48:28;10.65;;;7.15;;
78716;SDS011;68045;50.042;14.432;2023-08-17T17:52:29;7.75;;;5.72;;
78716;SDS011;68045;50.042;14.432;2023-08-17T17:56:40;9.10;;;5.78;;
78716;SDS011;68045;50.042;14.432;2023-08-17T18:00:43;6.25;;;4.75;;
78716;SDS011;68045;50.042;14.432;2023-08-17T18:04:44;7.75;;;5.22;;
78716;SDS011;68045;50.042;14.432;2023-08-17T18:08:45;10.50;;;4.70;;
78716;SDS011;68045;50.042;14.432;2023-08-17T18:12:46;11.57;;;5.15;;
78716;SDS011;68045;50.042;14.432;2023-08-17T18:16:47;6.00;;;4.45;;
78716;SDS011;68045;50.042;14.432;2023-08-17T18:20:47;7.18;;;4.40;;
78716;SDS011;68045;50.042;14.432;2023-08-17T18:24:48;5.78;;;4.43;;
78716;SDS011;68045;50.042;14.432;2023-08-17T18:28:50;6.03;;;4.50;;
78716;SDS011;68045;50.042;14.432;2023-08-17T18:32:51;6.57;;;4.15;;
78716;SDS011;68045;50.042;14.432;2023-08-17T18:36:52;6.20;;;5.45;;
78716;SDS011;68045;50.042;14.432;2023-08-17T18:40:53;6.07;;;4.57;;
78716;SDS011;68045;50.042;14.432;2023-08-17T18:45:07;7.95;;;4.40;;
78716;SDS011;68045;50.042;14.432;2023-08-17T18:49:08;8.00;;;4.90;;
78716;SDS011;68045;50.042;14.432;2023-08-17T18:53:09;8.07;;;4.97;;
78716;SDS011;68045;50.042;14.432;2023-08-17T18:57:09;7.90;;;4.25;;
78716;SDS011;68045;50.042;14.432;2023-08-17T19:01:11;5.82;;;4.25;;
78716;SDS011;68045;50.042;14.432;2023-08-17T19:05:11;9.38;;;4.78;;
78716;SDS011;68045;50.042;14.432;2023-08-17T19:09:12;7.75;;;4.43;;
78716;SDS011;68045;50.042;14.432;2023-08-17T19:13:13;7.15;;;4.85;;
78716;SDS011;68045;50.042;14.432;2023-08-17T19:17:14;7.80;;;5.07;;
78716;SDS011;68045;50.042;14.432;2023-08-17T19:21:14;8.82;;;4.85;;
78716;SDS011;68045;50.042;14.432;2023-08-17T19:25:16;7.57;;;4.78;;
78716;SDS011;68045;50.042;14.432;2023-08-17T19:29:16;9.20;;;4.95;;
78716;SDS011;68045;50.042;14.432;2023-08-17T19:33:17;8.85;;;4.53;;
78716;SDS011;68045;50.042;14.432;2023-08-17T19:37:18;8.98;;;5.45;;
78716;SDS011;68045;50.042;14.432;2023-08-17T19:41:18;7.78;;;5.75;;
78716;SDS011;68045;50.042;14.432;2023-08-17T19:45:19;6.93;;;4.70;;
78716;SDS011;68045;50.042;14.432;2023-08-17T19:49:20;9.45;;;5.93;;
78716;SDS011;68045;50.042;14.432;2023-08-17T19:53:21;7.55;;;5.88;;
78716;SDS011;68045;50.042;14.432;2023-08-17T19:57:22;12.85;;;8.70;;
78716;SDS011;68045;50.042;14.432;2023-08-17T20:01:23;7.10;;;5.85;;
78716;SDS011;68045;50.042;14.432;2023-08-17T20:05:25;7.22;;;5.78;;
78716;SDS011;68045;50.042;14.432;2023-08-17T20:09:26;8.52;;;6.05;;
78716;SDS011;68045;50.042;14.432;2023-08-17T20:13:27;9.95;;;5.65;;
78716;SDS011;68045;50.042;14.432;2023-08-17T20:17:27;7.97;;;6.13;;
78716;SDS011;68045;50.042;14.432;2023-08-17T20:21:28;9.93;;;6.30;;
78716;SDS011;68045;50.042;14.432;2023-08-17T20:25:29;11.35;;;6.15;;
78716;SDS011;68045;50.042;14.432;2023-08-17T20:29:31;7.85;;;5.93;;
78716;SDS011;68045;50.042;14.432;2023-08-17T20:33:32;13.23;;;6.72;;
78716;SDS011;68045;50.042;14.432;2023-08-17T20:37:32;9.30;;;6.22;;
78716;SDS011;68045;50.042;14.432;2023-08-17T20:41:33;7.75;;;6.53;;
78716;SDS011;68045;50.042;14.432;2023-08-17T20:45:41;8.93;;;6.55;;
78716;SDS011;68045;50.042;14.432;2023-08-17T20:49:42;10.35;;;6.20;;
78716;SDS011;68045;50.042;14.432;2023-08-17T20:53:44;10.68;;;6.78;;
78716;SDS011;68045;50.042;14.432;2023-08-17T20:57:45;11.07;;;6.63;;
78716;SDS011;68045;50.042;14.432;2023-08-17T21:01:45;14.30;;;8.40;;
78716;SDS011;68045;50.042;14.432;2023-08-17T21:05:46;13.30;;;8.38;;
78716;SDS011;68045;50.042;14.432;2023-08-17T21:09:47;11.00;;;7.38;;
78716;SDS011;68045;50.042;14.432;2023-08-17T21:13:48;8.48;;;6.28;;
78716;SDS011;68045;50.042;14.432;2023-08-17T21:17:49;9.48;;;7.07;;
78716;SDS011;68045;50.042;14.432;2023-08-17T21:21:49;11.07;;;6.25;;
78716;SDS011;68045;50.042;14.432;2023-08-17T21:25:50;13.88;;;8.77;;
78716;SDS011;68045;50.042;14.432;2023-08-17T21:29:52;10.88;;;5.97;;
78716;SDS011;68045;50.042;14.432;2023-08-17T21:33:53;12.45;;;6.00;;
78716;SDS011;68045;50.042;14.432;2023-08-17T21:37:53;11.43;;;6.15;;
78716;SDS011;68045;50.042;14.432;2023-08-17T21:41:54;10.68;;;6.63;;
78716;SDS011;68045;50.042;14.432;2023-08-17T21:45:59;9.45;;;6.53;;
78716;SDS011;68045;50.042;14.432;2023-08-17T21:50:01;13.02;;;8.98;;
78716;SDS011;68045;50.042;14.432;2023-08-17T21:54:03;9.30;;;6.30;;
78716;SDS011;68045;50.042;14.432;2023-08-17T21:58:04;8.30;;;6.30;;
78716;SDS011;68045;50.042;14.432;2023-08-17T22:02:05;9.05;;;6.15;;
78716;SDS011;68045;50.042;14.432;2023-08-17T22:06:06;8.88;;;6.88;;
78716;SDS011;68045;50.042;14.432;2023-08-17T22:10:07;8.88;;;6.68;;
78716;SDS011;68045;50.042;14.432;2023-08-17T22:14:08;9.35;;;7.10;;
78716;SDS011;68045;50.042;14.432;2023-08-17T22:18:09;9.32;;;6.95;;
78716;SDS011;68045;50.042;14.432;2023-08-17T22:22:10;10.13;;;7.80;;
78716;SDS011;68045;50.042;14.432;2023-08-17T22:26:12;9.43;;;7.88;;
78716;SDS011;68045;50.042;14.432;2023-08-17T22:30:13;8.30;;;6.43;;
78716;SDS011;68045;50.042;14.432;2023-08-17T22:34:13;13.55;;;7.03;;
78716;SDS011;68045;50.042;14.432;2023-08-17T22:38:14;9.38;;;6.38;;
78716;SDS011;68045;50.042;14.432;2023-08-17T22:42:15;9.77;;;6.97;;
78716;SDS011;68045;50.042;14.432;2023-08-17T22:46:16;8.13;;;6.47;;
78716;SDS011;68045;50.042;14.432;2023-08-17T22:50:17;11.77;;;8.07;;
78716;SDS011;68045;50.042;14.432;2023-08-17T22:54:17;9.48;;;6.90;;
78716;SDS011;68045;50.042;14.432;2023-08-17T22:58:18;12.90;;;7.72;;
78716;SDS011;68045;50.042;14.432;2023-08-17T23:02:19;9.85;;;7.03;;
78716;SDS011;68045;50.042;14.432;2023-08-17T23:06:19;11.07;;;7.15;;
78716;SDS011;68045;50.042;14.432;2023-08-17T23:10:20;11.52;;;7.10;;
78716;SDS011;68045;50.042;14.432;2023-08-17T23:14:21;11.48;;;7.45;;
78716;SDS011;68045;50.042;14.432;2023-08-17T23:18:23;11.85;;;7.72;;
78716;SDS011;68045;50.042;14.432;2023-08-17T23:22:24;13.20;;;8.57;;
78716;SDS011;68045;50.042;14.432;2023-08-17T23:26:25;11.30;;;7.15;;
78716;SDS011;68045;50.042;14.432;2023-08-17T23:30:25;14.93;;;8.50;;
78716;SDS011;68045;50.042;14.432;2023-08-17T23:34:26;11.88;;;9.55;;
78716;SDS011;68045;50.042;14.432;2023-08-17T23:38:27;15.77;;;10.50;;
78716;SDS011;68045;50.042;14.432;2023-08-17T23:42:28;16.02;;;12.13;;
78716;SDS011;68045;50.042;14.432;2023-08-17T23:46:29;19.38;;;12.93;;
78716;SDS011;68045;50.042;14.432;2023-08-17T23:50:30;18.50;;;13.98;;
78716;SDS011;68045;50.042;14.432;2023-08-17T23:54:30;24.90;;;16.58;;
78716;SDS011;68045;50.042;14.432;2023-08-17T23:58:31;20.63;;;14.13;;
